sensor_id;sensor_type;location;lat;lon;timestamp;P1;P2;P0
80639;PMS5003;69992;60.170;24.692;2024-03-08T00:00:14;22;19;
80639;PMS5003;69992;60.170;24.692;2024-03-08T00:02:39;24;19;
80639;PMS5003;69992;60.170;24.692;2024-03-08T00:05:04;18;16;
80639;PMS5003;69992;60.170;24.692;2024-03-08T00:07:30;24;20;
80639;PMS5003;69992;60.170;24.692;2024-03-08T00:09:56;22;19;
80639;PMS5003;69992;60.170;24.692;2024-03-08T00:12:21;22;22;
80639;PMS5003;69992;60.170;24.692;2024-03-08T00:14:46;20;18;
80639;PMS5003;69992;60.170;24.692;2024-03-08T00:17:12;22;20;
80639;PMS5003;69992;60.170;24.692;2024-03-08T00:19:37;20;16;
80639;PMS5003;69992;60.170;24.692;2024-03-08T00:22:02;22;16;
80639;PMS5003;69992;60.170;24.692;2024-03-08T00:24:28;29;24;
80639;PMS5003;69992;60.170;24.692;2024-03-08T00:26:54;18;16;
80639;PMS5003;69992;60.170;24.692;2024-03-08T00:29:19;19;16;
80639;PMS5003;69992;60.170;24.692;2024-03-08T00:31:44;20;20;
80639;PMS5003;69992;60.170;24.692;2024-03-08T00:34:09;16;16;
80639;PMS5003;69992;60.170;24.692;2024-03-08T00:36:35;19;15;
80639;PMS5003;69992;60.170;24.692;2024-03-08T00:39:00;25;20;
80639;PMS5003;69992;60.170;24.692;2024-03-08T00:41:25;24;20;
80639;PMS5003;69992;60.170;24.692;2024-03-08T00:43:51;24;21;
80639;PMS5003;69992;60.170;24.692;2024-03-08T00:46:21;19;18;
80639;PMS5003;69992;60.170;24.692;2024-03-08T00:48:42;20;18;
80639;PMS5003;69992;60.170;24.692;2024-03-08T00:51:07;18;15;
80639;PMS5003;69992;60.170;24.692;2024-03-08T00:53:33;20;19;
80639;PMS5003;69992;60.170;24.692;2024-03-08T00:55:58;16;15;
80639;PMS5003;69992;60.170;24.692;2024-03-08T00:58:24;16;15;
80639;PMS5003;69992;60.170;24.692;2024-03-08T01:00:49;17;16;
80639;PMS5003;69992;60.170;24.692;2024-03-08T01:03:14;15;14;
80639;PMS5003;69992;60.170;24.692;2024-03-08T01:05:40;20;16;
80639;PMS5003;69992;60.170;24.692;2024-03-08T01:08:05;12;11;
80639;PMS5003;69992;60.170;24.692;2024-03-08T01:10:31;14;12;
80639;PMS5003;69992;60.170;24.692;2024-03-08T01:12:59;15;14;
80639;PMS5003;69992;60.170;24.692;2024-03-08T01:15:22;17;12;
80639;PMS5003;69992;60.170;24.692;2024-03-08T01:17:48;24;17;
80639;PMS5003;69992;60.170;24.692;2024-03-08T01:20:13;16;15;
80639;PMS5003;69992;60.170;24.692;2024-03-08T01:22:40;16;15;
80639;PMS5003;69992;60.170;24.692;2024-03-08T01:25:04;14;14;
80639;PMS5003;69992;60.170;24.692;2024-03-08T01:27:29;14;11;
80639;PMS5003;69992;60.170;24.692;2024-03-08T01:29:54;14;12;
80639;PMS5003;69992;60.170;24.692;2024-03-08T01:32:20;14;14;
80639;PMS5003;69992;60.170;24.692;2024-03-08T01:34:45;14;12;
80639;PMS5003;69992;60.170;24.692;2024-03-08T01:37:10;17;14;
80639;PMS5003;69992;60.170;24.692;2024-03-08T01:39:35;14;12;
80639;PMS5003;69992;60.170;24.692;2024-03-08T01:42:01;42;26;
80639;PMS5003;69992;60.170;24.692;2024-03-08T01:44:27;14;12;
80639;PMS5003;69992;60.170;24.692;2024-03-08T01:46:52;15;14;
80639;PMS5003;69992;60.170;24.692;2024-03-08T01:49:21;19;16;
80639;PMS5003;69992;60.170;24.692;2024-03-08T01:51:43;17;15;
80639;PMS5003;69992;60.170;24.692;2024-03-08T01:54:09;22;17;
80639;PMS5003;69992;60.170;24.692;2024-03-08T01:56:35;12;12;
80639;PMS5003;69992;60.170;24.692;2024-03-08T01:59:00;19;15;
80639;PMS5003;69992;60.170;24.692;2024-03-08T02:01:29;23;15;
80639;PMS5003;69992;60.170;24.692;2024-03-08T02:03:51;17;15;
80639;PMS5003;69992;60.170;24.692;2024-03-08T02:06:17;15;15;
80639;PMS5003;69992;60.170;24.692;2024-03-08T02:08:43;14;12;
80639;PMS5003;69992;60.170;24.692;2024-03-08T02:11:08;11;10;
80639;PMS5003;69992;60.170;24.692;2024-03-08T02:13:33;14;11;
80639;PMS5003;69992;60.170;24.692;2024-03-08T02:15:59;11;8;
80639;PMS5003;69992;60.170;24.692;2024-03-08T02:18:23;15;14;
80639;PMS5003;69992;60.170;24.692;2024-03-08T02:20:49;14;14;
80639;PMS5003;69992;60.170;24.692;2024-03-08T02:23:14;16;15;
80639;PMS5003;69992;60.170;24.692;2024-03-08T02:25:39;14;12;
80639;PMS5003;69992;60.170;24.692;2024-03-08T02:28:04;13;13;
80639;PMS5003;69992;60.170;24.692;2024-03-08T02:30:30;11;10;
80639;PMS5003;69992;60.170;24.692;2024-03-08T02:32:55;13;13;
80639;PMS5003;69992;60.170;24.692;2024-03-08T02:35:22;12;12;
80639;PMS5003;69992;60.170;24.692;2024-03-08T02:37:46;10;10;
80639;PMS5003;69992;60.170;24.692;2024-03-08T02:40:11;12;12;
80639;PMS5003;69992;60.170;24.692;2024-03-08T02:42:36;12;11;
80639;PMS5003;69992;60.170;24.692;2024-03-08T02:45:01;14;11;
80639;PMS5003;69992;60.170;24.692;2024-03-08T02:47:27;19;12;
80639;PMS5003;69992;60.170;24.692;2024-03-08T02:49:52;13;12;
80639;PMS5003;69992;60.170;24.692;2024-03-08T02:52:18;11;10;
80639;PMS5003;69992;60.170;24.692;2024-03-08T02:54:43;12;12;
80639;PMS5003;69992;60.170;24.692;2024-03-08T02:57:08;11;11;
80639;PMS5003;69992;60.170;24.692;2024-03-08T02:59:33;12;12;
80639;PMS5003;69992;60.170;24.692;2024-03-08T03:01:58;12;12;
80639;PMS5003;69992;60.170;24.692;2024-03-08T03:04:23;16;13;
80639;PMS5003;69992;60.170;24.692;2024-03-08T03:06:49;20;15;
80639;PMS5003;69992;60.170;24.692;2024-03-08T03:09:15;12;12;
80639;PMS5003;69992;60.170;24.692;2024-03-08T03:11:43;16;15;
80639;PMS5003;69992;60.170;24.692;2024-03-08T03:14:05;15;13;
80639;PMS5003;69992;60.170;24.692;2024-03-08T03:16:30;12;12;
80639;PMS5003;69992;60.170;24.692;2024-03-08T03:18:56;16;12;
80639;PMS5003;69992;60.170;24.692;2024-03-08T03:21:21;12;11;
80639;PMS5003;69992;60.170;24.692;2024-03-08T03:23:49;12;12;
80639;PMS5003;69992;60.170;24.692;2024-03-08T03:26:12;13;12;
80639;PMS5003;69992;60.170;24.692;2024-03-08T03:28:38;16;13;
80639;PMS5003;69992;60.170;24.692;2024-03-08T03:31:03;16;12;
80639;PMS5003;69992;60.170;24.692;2024-03-08T03:33:28;13;12;
80639;PMS5003;69992;60.170;24.692;2024-03-08T03:35:54;12;10;
80639;PMS5003;69992;60.170;24.692;2024-03-08T03:38:19;11;11;
80639;PMS5003;69992;60.170;24.692;2024-03-08T03:40:46;15;13;
80639;PMS5003;69992;60.170;24.692;2024-03-08T03:43:11;13;12;
80639;PMS5003;69992;60.170;24.692;2024-03-08T03:45:36;11;11;
80639;PMS5003;69992;60.170;24.692;2024-03-08T03:48:02;11;10;
80639;PMS5003;69992;60.170;24.692;2024-03-08T03:50:26;16;15;
80639;PMS5003;69992;60.170;24.692;2024-03-08T03:52:51;12;10;
80639;PMS5003;69992;60.170;24.692;2024-03-08T03:55:16;12;11;
80639;PMS5003;69992;60.170;24.692;2024-03-08T03:57:43;12;11;
80639;PMS5003;69992;60.170;24.692;2024-03-08T04:00:07;17;13;
80639;PMS5003;69992;60.170;24.692;2024-03-08T04:02:32;15;13;
80639;PMS5003;69992;60.170;24.692;2024-03-08T04:04:57;11;8;
80639;PMS5003;69992;60.170;24.692;2024-03-08T04:07:23;11;10;
80639;PMS5003;69992;60.170;24.692;2024-03-08T04:09:48;13;12;
80639;PMS5003;69992;60.170;24.692;2024-03-08T04:12:13;27;21;
80639;PMS5003;69992;60.170;24.692;2024-03-08T04:14:40;11;11;
80639;PMS5003;69992;60.170;24.692;2024-03-08T04:17:04;13;13;
80639;PMS5003;69992;60.170;24.692;2024-03-08T04:19:29;13;12;
80639;PMS5003;69992;60.170;24.692;2024-03-08T04:21:59;9;8;
80639;PMS5003;69992;60.170;24.692;2024-03-08T04:24:19;13;13;
80639;PMS5003;69992;60.170;24.692;2024-03-08T04:26:45;32;32;
80639;PMS5003;69992;60.170;24.692;2024-03-08T04:29:10;12;11;
80639;PMS5003;69992;60.170;24.692;2024-03-08T04:31:35;11;11;
80639;PMS5003;69992;60.170;24.692;2024-03-08T04:34:01;10;8;
80639;PMS5003;69992;60.170;24.692;2024-03-08T04:36:25;12;11;
80639;PMS5003;69992;60.170;24.692;2024-03-08T04:38:50;6;6;
80639;PMS5003;69992;60.170;24.692;2024-03-08T04:41:15;8;8;
80639;PMS5003;69992;60.170;24.692;2024-03-08T04:43:40;11;10;
80639;PMS5003;69992;60.170;24.692;2024-03-08T04:46:06;20;12;
80639;PMS5003;69992;60.170;24.692;2024-03-08T04:48:31;42;41;
80639;PMS5003;69992;60.170;24.692;2024-03-08T04:50:56;26;26;
80639;PMS5003;69992;60.170;24.692;2024-03-08T04:53:21;32;32;
80639;PMS5003;69992;60.170;24.692;2024-03-08T04:55:47;16;12;
80639;PMS5003;69992;60.170;24.692;2024-03-08T04:58:12;31;30;
80639;PMS5003;69992;60.170;24.692;2024-03-08T05:00:37;18;16;
80639;PMS5003;69992;60.170;24.692;2024-03-08T05:03:03;12;12;
80639;PMS5003;69992;60.170;24.692;2024-03-08T05:05:27;25;23;
80639;PMS5003;69992;60.170;24.692;2024-03-08T05:07:53;23;23;
80639;PMS5003;69992;60.170;24.692;2024-03-08T05:10:21;32;32;
80639;PMS5003;69992;60.170;24.692;2024-03-08T05:12:44;41;41;
80639;PMS5003;69992;60.170;24.692;2024-03-08T05:15:09;27;26;
80639;PMS5003;69992;60.170;24.692;2024-03-08T05:17:36;21;18;
80639;PMS5003;69992;60.170;24.692;2024-03-08T05:20:00;38;37;
80639;PMS5003;69992;60.170;24.692;2024-03-08T05:22:26;20;14;
80639;PMS5003;69992;60.170;24.692;2024-03-08T05:24:51;37;37;
80639;PMS5003;69992;60.170;24.692;2024-03-08T05:27:17;37;35;
80639;PMS5003;69992;60.170;24.692;2024-03-08T05:29:42;42;42;
80639;PMS5003;69992;60.170;24.692;2024-03-08T05:32:07;32;32;
80639;PMS5003;69992;60.170;24.692;2024-03-08T05:34:33;33;33;
80639;PMS5003;69992;60.170;24.692;2024-03-08T05:36:58;22;21;
80639;PMS5003;69992;60.170;24.692;2024-03-08T05:39:24;17;13;
80639;PMS5003;69992;60.170;24.692;2024-03-08T05:41:49;28;28;
80639;PMS5003;69992;60.170;24.692;2024-03-08T05:44:14;18;16;
80639;PMS5003;69992;60.170;24.692;2024-03-08T05:46:40;15;15;
80639;PMS5003;69992;60.170;24.692;2024-03-08T05:49:06;18;17;
80639;PMS5003;69992;60.170;24.692;2024-03-08T05:51:31;26;26;
80639;PMS5003;69992;60.170;24.692;2024-03-08T05:53:55;23;22;
80639;PMS5003;69992;60.170;24.692;2024-03-08T05:56:21;21;19;
80639;PMS5003;69992;60.170;24.692;2024-03-08T05:58:49;21;19;
80639;PMS5003;69992;60.170;24.692;2024-03-08T06:01:11;17;17;
80639;PMS5003;69992;60.170;24.692;2024-03-08T06:03:36;19;18;
80639;PMS5003;69992;60.170;24.692;2024-03-08T06:06:02;19;16;
80639;PMS5003;69992;60.170;24.692;2024-03-08T06:08:27;16;14;
80639;PMS5003;69992;60.170;24.692;2024-03-08T06:10:53;16;16;
80639;PMS5003;69992;60.170;24.692;2024-03-08T06:13:18;17;14;
80639;PMS5003;69992;60.170;24.692;2024-03-08T06:15:43;11;11;
80639;PMS5003;69992;60.170;24.692;2024-03-08T06:18:08;12;12;
80639;PMS5003;69992;60.170;24.692;2024-03-08T06:20:34;14;14;
80639;PMS5003;69992;60.170;24.692;2024-03-08T06:23:00;14;14;
80639;PMS5003;69992;60.170;24.692;2024-03-08T06:25:24;16;14;
80639;PMS5003;69992;60.170;24.692;2024-03-08T06:27:49;15;13;
80639;PMS5003;69992;60.170;24.692;2024-03-08T06:30:14;13;12;
80639;PMS5003;69992;60.170;24.692;2024-03-08T06:32:40;13;13;
80639;PMS5003;69992;60.170;24.692;2024-03-08T06:35:05;18;16;
80639;PMS5003;69992;60.170;24.692;2024-03-08T06:37:30;11;11;
80639;PMS5003;69992;60.170;24.692;2024-03-08T06:39:55;16;9;
80639;PMS5003;69992;60.170;24.692;2024-03-08T06:42:21;13;12;
80639;PMS5003;69992;60.170;24.692;2024-03-08T06:44:47;16;13;
80639;PMS5003;69992;60.170;24.692;2024-03-08T06:47:12;8;8;
80639;PMS5003;69992;60.170;24.692;2024-03-08T06:49:37;12;11;
80639;PMS5003;69992;60.170;24.692;2024-03-08T06:52:02;12;12;
80639;PMS5003;69992;60.170;24.692;2024-03-08T06:54:28;11;9;
80639;PMS5003;69992;60.170;24.692;2024-03-08T06:56:53;14;12;
80639;PMS5003;69992;60.170;24.692;2024-03-08T06:59:20;11;11;
80639;PMS5003;69992;60.170;24.692;2024-03-08T07:01:44;14;14;
80639;PMS5003;69992;60.170;24.692;2024-03-08T07:04:09;7;7;
80639;PMS5003;69992;60.170;24.692;2024-03-08T07:06:34;12;11;
80639;PMS5003;69992;60.170;24.692;2024-03-08T07:09:00;11;9;
80639;PMS5003;69992;60.170;24.692;2024-03-08T07:11:25;8;7;
80639;PMS5003;69992;60.170;24.692;2024-03-08T07:13:50;11;11;
80639;PMS5003;69992;60.170;24.692;2024-03-08T07:16:15;11;9;
80639;PMS5003;69992;60.170;24.692;2024-03-08T07:18:40;13;13;
80639;PMS5003;69992;60.170;24.692;2024-03-08T07:21:06;11;9;
80639;PMS5003;69992;60.170;24.692;2024-03-08T07:23:31;16;16;
80639;PMS5003;69992;60.170;24.692;2024-03-08T07:25:56;11;11;
80639;PMS5003;69992;60.170;24.692;2024-03-08T07:28:21;11;11;
80639;PMS5003;69992;60.170;24.692;2024-03-08T07:30:46;13;13;
80639;PMS5003;69992;60.170;24.692;2024-03-08T07:33:11;11;11;
80639;PMS5003;69992;60.170;24.692;2024-03-08T07:35:36;13;12;
80639;PMS5003;69992;60.170;24.692;2024-03-08T07:38:01;14;14;
80639;PMS5003;69992;60.170;24.692;2024-03-08T07:40:28;12;11;
80639;PMS5003;69992;60.170;24.692;2024-03-08T07:42:52;12;12;
80639;PMS5003;69992;60.170;24.692;2024-03-08T07:45:17;9;7;
80639;PMS5003;69992;60.170;24.692;2024-03-08T07:47:42;12;11;
80639;PMS5003;69992;60.170;24.692;2024-03-08T07:50:07;11;9;
80639;PMS5003;69992;60.170;24.692;2024-03-08T07:52:32;8;8;
80639;PMS5003;69992;60.170;24.692;2024-03-08T07:54:58;11;9;
80639;PMS5003;69992;60.170;24.692;2024-03-08T07:57:23;13;12;
80639;PMS5003;69992;60.170;24.692;2024-03-08T07:59:49;13;9;
80639;PMS5003;69992;60.170;24.692;2024-03-08T08:02:14;11;9;
80639;PMS5003;69992;60.170;24.692;2024-03-08T08:04:39;12;12;
80639;PMS5003;69992;60.170;24.692;2024-03-08T08:07:04;12;11;
80639;PMS5003;69992;60.170;24.692;2024-03-08T08:09:29;9;8;
80639;PMS5003;69992;60.170;24.692;2024-03-08T08:11:54;12;11;
80639;PMS5003;69992;60.170;24.692;2024-03-08T08:14:20;9;8;
80639;PMS5003;69992;60.170;24.692;2024-03-08T08:16:45;9;8;
80639;PMS5003;69992;60.170;24.692;2024-03-08T08:19:10;13;11;
80639;PMS5003;69992;60.170;24.692;2024-03-08T08:21:35;9;8;
80639;PMS5003;69992;60.170;24.692;2024-03-08T08:24:01;12;9;
80639;PMS5003;69992;60.170;24.692;2024-03-08T08:26:27;12;9;
80639;PMS5003;69992;60.170;24.692;2024-03-08T08:28:52;9;8;
80639;PMS5003;69992;60.170;24.692;2024-03-08T08:31:17;11;11;
80639;PMS5003;69992;60.170;24.692;2024-03-08T08:33:42;9;9;
80639;PMS5003;69992;60.170;24.692;2024-03-08T08:36:07;12;11;
80639;PMS5003;69992;60.170;24.692;2024-03-08T08:38:33;11;9;
80639;PMS5003;69992;60.170;24.692;2024-03-08T08:40:58;10;9;
80639;PMS5003;69992;60.170;24.692;2024-03-08T08:43:23;14;12;
80639;PMS5003;69992;60.170;24.692;2024-03-08T08:45:48;12;10;
80639;PMS5003;69992;60.170;24.692;2024-03-08T08:48:13;12;12;
80639;PMS5003;69992;60.170;24.692;2024-03-08T08:50:38;12;12;
80639;PMS5003;69992;60.170;24.692;2024-03-08T08:53:03;13;12;
80639;PMS5003;69992;60.170;24.692;2024-03-08T08:55:28;8;7;
80639;PMS5003;69992;60.170;24.692;2024-03-08T08:57:53;8;8;
80639;PMS5003;69992;60.170;24.692;2024-03-08T09:00:19;11;9;
80639;PMS5003;69992;60.170;24.692;2024-03-08T09:02:43;9;9;
80639;PMS5003;69992;60.170;24.692;2024-03-08T09:05:09;15;10;
80639;PMS5003;69992;60.170;24.692;2024-03-08T09:07:34;13;10;
80639;PMS5003;69992;60.170;24.692;2024-03-08T09:09:59;10;9;
80639;PMS5003;69992;60.170;24.692;2024-03-08T09:12:24;10;10;
80639;PMS5003;69992;60.170;24.692;2024-03-08T09:14:50;9;8;
80639;PMS5003;69992;60.170;24.692;2024-03-08T09:17:15;8;8;
80639;PMS5003;69992;60.170;24.692;2024-03-08T09:19:41;10;10;
80639;PMS5003;69992;60.170;24.692;2024-03-08T09:22:06;10;10;
80639;PMS5003;69992;60.170;24.692;2024-03-08T09:24:31;12;12;
80639;PMS5003;69992;60.170;24.692;2024-03-08T09:26:56;9;9;
80639;PMS5003;69992;60.170;24.692;2024-03-08T09:29:21;12;10;
80639;PMS5003;69992;60.170;24.692;2024-03-08T09:31:46;12;9;
80639;PMS5003;69992;60.170;24.692;2024-03-08T09:34:11;12;10;
80639;PMS5003;69992;60.170;24.692;2024-03-08T09:36:36;9;9;
80639;PMS5003;69992;60.170;24.692;2024-03-08T09:39:01;12;10;
80639;PMS5003;69992;60.170;24.692;2024-03-08T09:41:27;20;15;
80639;PMS5003;69992;60.170;24.692;2024-03-08T09:43:52;12;12;
80639;PMS5003;69992;60.170;24.692;2024-03-08T09:46:19;9;9;
80639;PMS5003;69992;60.170;24.692;2024-03-08T09:48:43;9;9;
80639;PMS5003;69992;60.170;24.692;2024-03-08T09:51:08;8;8;
80639;PMS5003;69992;60.170;24.692;2024-03-08T09:53:34;13;9;
80639;PMS5003;69992;60.170;24.692;2024-03-08T09:55:58;9;9;
80639;PMS5003;69992;60.170;24.692;2024-03-08T09:58:24;9;9;
80639;PMS5003;69992;60.170;24.692;2024-03-08T10:00:49;9;9;
80639;PMS5003;69992;60.170;24.692;2024-03-08T10:03:14;12;10;
80639;PMS5003;69992;60.170;24.692;2024-03-08T10:05:39;9;8;
80639;PMS5003;69992;60.170;24.692;2024-03-08T10:08:04;8;8;
80639;PMS5003;69992;60.170;24.692;2024-03-08T10:10:29;9;8;
80639;PMS5003;69992;60.170;24.692;2024-03-08T10:12:55;11;9;
80639;PMS5003;69992;60.170;24.692;2024-03-08T10:15:19;10;9;
80639;PMS5003;69992;60.170;24.692;2024-03-08T10:17:44;8;8;
80639;PMS5003;69992;60.170;24.692;2024-03-08T10:20:13;10;8;
80639;PMS5003;69992;60.170;24.692;2024-03-08T10:22:35;8;7;
80639;PMS5003;69992;60.170;24.692;2024-03-08T10:25:00;7;7;
80639;PMS5003;69992;60.170;24.692;2024-03-08T10:27:24;7;7;
80639;PMS5003;69992;60.170;24.692;2024-03-08T10:29:50;8;8;
80639;PMS5003;69992;60.170;24.692;2024-03-08T10:32:14;8;8;
80639;PMS5003;69992;60.170;24.692;2024-03-08T10:34:40;13;11;
80639;PMS5003;69992;60.170;24.692;2024-03-08T10:37:05;27;22;
80639;PMS5003;69992;60.170;24.692;2024-03-08T10:39:33;19;16;
80639;PMS5003;69992;60.170;24.692;2024-03-08T10:41:56;8;8;
80639;PMS5003;69992;60.170;24.692;2024-03-08T10:44:26;10;10;
80639;PMS5003;69992;60.170;24.692;2024-03-08T10:46:54;10;10;
80639;PMS5003;69992;60.170;24.692;2024-03-08T10:49:12;13;11;
80639;PMS5003;69992;60.170;24.692;2024-03-08T10:51:36;11;10;
80639;PMS5003;69992;60.170;24.692;2024-03-08T10:54:02;10;9;
80639;PMS5003;69992;60.170;24.692;2024-03-08T10:56:27;11;10;
80639;PMS5003;69992;60.170;24.692;2024-03-08T10:58:52;7;5;
80639;PMS5003;69992;60.170;24.692;2024-03-08T11:01:18;9;9;
80639;PMS5003;69992;60.170;24.692;2024-03-08T11:03:44;13;10;
80639;PMS5003;69992;60.170;24.692;2024-03-08T11:06:09;10;9;
80639;PMS5003;69992;60.170;24.692;2024-03-08T11:08:33;8;8;
80639;PMS5003;69992;60.170;24.692;2024-03-08T11:10:59;11;10;
80639;PMS5003;69992;60.170;24.692;2024-03-08T11:15:49;9;9;
80639;PMS5003;69992;60.170;24.692;2024-03-08T11:18:14;7;7;
80639;PMS5003;69992;60.170;24.692;2024-03-08T11:20:40;9;8;
80639;PMS5003;69992;60.170;24.692;2024-03-08T11:23:05;10;9;
80639;PMS5003;69992;60.170;24.692;2024-03-08T11:25:31;10;10;
80639;PMS5003;69992;60.170;24.692;2024-03-08T11:28:07;9;9;
80639;PMS5003;69992;60.170;24.692;2024-03-08T11:30:21;11;11;
80639;PMS5003;69992;60.170;24.692;2024-03-08T11:32:46;10;10;
80639;PMS5003;69992;60.170;24.692;2024-03-08T11:37:37;9;9;
80639;PMS5003;69992;60.170;24.692;2024-03-08T11:40:06;13;9;
80639;PMS5003;69992;60.170;24.692;2024-03-08T11:42:27;9;8;
80639;PMS5003;69992;60.170;24.692;2024-03-08T11:44:52;8;8;
80639;PMS5003;69992;60.170;24.692;2024-03-08T11:47:17;9;9;
80639;PMS5003;69992;60.170;24.692;2024-03-08T11:49:43;8;8;
80639;PMS5003;69992;60.170;24.692;2024-03-08T11:52:10;8;8;
80639;PMS5003;69992;60.170;24.692;2024-03-08T11:54:34;8;8;
80639;PMS5003;69992;60.170;24.692;2024-03-08T11:57:00;9;8;
80639;PMS5003;69992;60.170;24.692;2024-03-08T11:59:25;8;8;
80639;PMS5003;69992;60.170;24.692;2024-03-08T12:04:15;8;7;
80639;PMS5003;69992;60.170;24.692;2024-03-08T12:06:40;10;10;
80639;PMS5003;69992;60.170;24.692;2024-03-08T12:09:07;9;8;
80639;PMS5003;69992;60.170;24.692;2024-03-08T12:11:30;8;8;
80639;PMS5003;69992;60.170;24.692;2024-03-08T12:13:55;10;9;
80639;PMS5003;69992;60.170;24.692;2024-03-08T12:16:20;10;10;
80639;PMS5003;69992;60.170;24.692;2024-03-08T12:18:45;9;9;
80639;PMS5003;69992;60.170;24.692;2024-03-08T12:21:11;12;10;
80639;PMS5003;69992;60.170;24.692;2024-03-08T12:23:35;9;9;
80639;PMS5003;69992;60.170;24.692;2024-03-08T12:26:10;9;9;
80639;PMS5003;69992;60.170;24.692;2024-03-08T12:28:25;8;8;
80639;PMS5003;69992;60.170;24.692;2024-03-08T12:30:51;10;10;
80639;PMS5003;69992;60.170;24.692;2024-03-08T12:33:16;7;7;
80639;PMS5003;69992;60.170;24.692;2024-03-08T12:35:49;10;10;
80639;PMS5003;69992;60.170;24.692;2024-03-08T12:38:07;10;9;
80639;PMS5003;69992;60.170;24.692;2024-03-08T12:40:33;8;7;
80639;PMS5003;69992;60.170;24.692;2024-03-08T12:42:58;8;8;
80639;PMS5003;69992;60.170;24.692;2024-03-08T12:45:24;9;9;
80639;PMS5003;69992;60.170;24.692;2024-03-08T12:47:49;8;8;
80639;PMS5003;69992;60.170;24.692;2024-03-08T12:50:15;9;8;
80639;PMS5003;69992;60.170;24.692;2024-03-08T12:52:41;8;8;
80639;PMS5003;69992;60.170;24.692;2024-03-08T12:55:06;9;8;
80639;PMS5003;69992;60.170;24.692;2024-03-08T12:57:30;7;5;
80639;PMS5003;69992;60.170;24.692;2024-03-08T12:59:56;7;7;
80639;PMS5003;69992;60.170;24.692;2024-03-08T13:02:22;8;7;
80639;PMS5003;69992;60.170;24.692;2024-03-08T13:04:46;8;7;
80639;PMS5003;69992;60.170;24.692;2024-03-08T13:07:11;8;8;
80639;PMS5003;69992;60.170;24.692;2024-03-08T13:09:36;4;4;
80639;PMS5003;69992;60.170;24.692;2024-03-08T13:12:02;5;5;
80639;PMS5003;69992;60.170;24.692;2024-03-08T13:14:27;7;5;
80639;PMS5003;69992;60.170;24.692;2024-03-08T13:16:52;7;7;
80639;PMS5003;69992;60.170;24.692;2024-03-08T13:19:18;5;5;
80639;PMS5003;69992;60.170;24.692;2024-03-08T13:21:43;7;7;
80639;PMS5003;69992;60.170;24.692;2024-03-08T13:24:09;8;7;
80639;PMS5003;69992;60.170;24.692;2024-03-08T13:26:34;7;7;
80639;PMS5003;69992;60.170;24.692;2024-03-08T13:28:59;10;10;
80639;PMS5003;69992;60.170;24.692;2024-03-08T13:31:25;10;8;
80639;PMS5003;69992;60.170;24.692;2024-03-08T13:33:50;17;15;
80639;PMS5003;69992;60.170;24.692;2024-03-08T13:36:15;55;40;
80639;PMS5003;69992;60.170;24.692;2024-03-08T13:38:42;24;19;
80639;PMS5003;69992;60.170;24.692;2024-03-08T13:41:06;12;9;
80639;PMS5003;69992;60.170;24.692;2024-03-08T13:43:32;10;9;
80639;PMS5003;69992;60.170;24.692;2024-03-08T13:45:57;6;6;
80639;PMS5003;69992;60.170;24.692;2024-03-08T13:48:23;4;4;
80639;PMS5003;69992;60.170;24.692;2024-03-08T13:50:48;5;5;
80639;PMS5003;69992;60.170;24.692;2024-03-08T13:53:14;7;7;
80639;PMS5003;69992;60.170;24.692;2024-03-08T13:55:39;5;4;
80639;PMS5003;69992;60.170;24.692;2024-03-08T13:58:05;6;6;
80639;PMS5003;69992;60.170;24.692;2024-03-08T14:00:31;5;5;
80639;PMS5003;69992;60.170;24.692;2024-03-08T14:02:56;5;5;
80639;PMS5003;69992;60.170;24.692;2024-03-08T14:05:22;6;6;
80639;PMS5003;69992;60.170;24.692;2024-03-08T14:07:48;4;4;
80639;PMS5003;69992;60.170;24.692;2024-03-08T14:10:14;4;4;
80639;PMS5003;69992;60.170;24.692;2024-03-08T14:12:40;5;5;
80639;PMS5003;69992;60.170;24.692;2024-03-08T14:15:05;5;5;
80639;PMS5003;69992;60.170;24.692;2024-03-08T14:17:31;5;5;
80639;PMS5003;69992;60.170;24.692;2024-03-08T14:19:57;11;9;
80639;PMS5003;69992;60.170;24.692;2024-03-08T14:22:22;5;5;
80639;PMS5003;69992;60.170;24.692;2024-03-08T14:24:48;5;5;
80639;PMS5003;69992;60.170;24.692;2024-03-08T14:27:14;5;5;
80639;PMS5003;69992;60.170;24.692;2024-03-08T14:29:40;13;12;
80639;PMS5003;69992;60.170;24.692;2024-03-08T14:32:05;16;16;
80639;PMS5003;69992;60.170;24.692;2024-03-08T14:34:31;8;7;
80639;PMS5003;69992;60.170;24.692;2024-03-08T14:36:57;8;8;
80639;PMS5003;69992;60.170;24.692;2024-03-08T14:39:23;8;7;
80639;PMS5003;69992;60.170;24.692;2024-03-08T14:41:48;6;6;
80639;PMS5003;69992;60.170;24.692;2024-03-08T14:44:14;6;6;
80639;PMS5003;69992;60.170;24.692;2024-03-08T14:46:40;6;6;
80639;PMS5003;69992;60.170;24.692;2024-03-08T14:49:06;7;7;
80639;PMS5003;69992;60.170;24.692;2024-03-08T14:51:31;5;5;
80639;PMS5003;69992;60.170;24.692;2024-03-08T14:53:57;9;9;
80639;PMS5003;69992;60.170;24.692;2024-03-08T14:56:23;10;9;
80639;PMS5003;69992;60.170;24.692;2024-03-08T14:58:48;7;7;
80639;PMS5003;69992;60.170;24.692;2024-03-08T15:01:14;8;8;
80639;PMS5003;69992;60.170;24.692;2024-03-08T15:03:40;9;9;
80639;PMS5003;69992;60.170;24.692;2024-03-08T15:06:06;9;9;
80639;PMS5003;69992;60.170;24.692;2024-03-08T15:08:31;10;9;
80639;PMS5003;69992;60.170;24.692;2024-03-08T15:10:57;8;6;
80639;PMS5003;69992;60.170;24.692;2024-03-08T15:13:22;8;8;
80639;PMS5003;69992;60.170;24.692;2024-03-08T15:15:48;6;6;
80639;PMS5003;69992;60.170;24.692;2024-03-08T15:18:12;10;9;
80639;PMS5003;69992;60.170;24.692;2024-03-08T15:20:38;8;8;
80639;PMS5003;69992;60.170;24.692;2024-03-08T15:23:03;9;8;
80639;PMS5003;69992;60.170;24.692;2024-03-08T15:25:29;10;9;
80639;PMS5003;69992;60.170;24.692;2024-03-08T15:27:54;11;9;
80639;PMS5003;69992;60.170;24.692;2024-03-08T15:30:20;9;8;
80639;PMS5003;69992;60.170;24.692;2024-03-08T15:32:45;8;8;
80639;PMS5003;69992;60.170;24.692;2024-03-08T15:35:11;9;8;
80639;PMS5003;69992;60.170;24.692;2024-03-08T15:37:36;10;9;
80639;PMS5003;69992;60.170;24.692;2024-03-08T15:40:04;8;8;
80639;PMS5003;69992;60.170;24.692;2024-03-08T15:42:27;10;9;
80639;PMS5003;69992;60.170;24.692;2024-03-08T15:44:52;11;9;
80639;PMS5003;69992;60.170;24.692;2024-03-08T15:47:18;9;8;
80639;PMS5003;69992;60.170;24.692;2024-03-08T15:49:44;9;8;
80639;PMS5003;69992;60.170;24.692;2024-03-08T15:52:09;9;9;
80639;PMS5003;69992;60.170;24.692;2024-03-08T15:54:36;10;8;
80639;PMS5003;69992;60.170;24.692;2024-03-08T15:57:00;18;14;
80639;PMS5003;69992;60.170;24.692;2024-03-08T15:59:26;11;11;
80639;PMS5003;69992;60.170;24.692;2024-03-08T16:01:52;11;10;
80639;PMS5003;69992;60.170;24.692;2024-03-08T16:04:19;23;21;
80639;PMS5003;69992;60.170;24.692;2024-03-08T16:06:43;16;13;